sensor_id;sensor_type;location;lat;lon;timestamp;temperature;humidity
8099;DHT22;4092;47.876;9.372;2022-07-05T00:01:14;15.60;99.90
8099;DHT22;4092;47.876;9.372;2022-07-05T00:03:41;15.60;99.90
8099;DHT22;4092;47.876;9.372;2022-07-05T00:06:08;15.50;99.90
8099;DHT22;4092;47.876;9.372;2022-07-05T00:08:41;15.50;99.90
8099;DHT22;4092;47.876;9.372;2022-07-05T00:11:13;15.50;99.90
8099;DHT22;4092;47.876;9.372;2022-07-05T00:13:43;15.40;99.90
8099;DHT22;4092;47.876;9.372;2022-07-05T00:16:10;15.40;99.90
8099;DHT22;4092;47.876;9.372;2022-07-05T00:18:38;15.40;99.90
8099;DHT22;4092;47.876;9.372;2022-07-05T00:21:05;15.40;99.90
8099;DHT22;4092;47.876;9.372;2022-07-05T00:23:32;15.40;99.90
8099;DHT22;4092;47.876;9.372;2022-07-05T00:25:59;15.30;99.90
8099;DHT22;4092;47.876;9.372;2022-07-05T00:28:27;15.20;99.90
8099;DHT22;4092;47.876;9.372;2022-07-05T00:30:54;15.20;99.90
8099;DHT22;4092;47.876;9.372;2022-07-05T00:33:21;15.20;99.90
8099;DHT22;4092;47.876;9.372;2022-07-05T00:35:48;15.20;99.90
8099;DHT22;4092;47.876;9.372;2022-07-05T00:38:15;15.20;99.90
8099;DHT22;4092;47.876;9.372;2022-07-05T00:40:43;15.20;99.90
8099;DHT22;4092;47.876;9.372;2022-07-05T00:43:10;15.20;99.90
8099;DHT22;4092;47.876;9.372;2022-07-05T00:45:38;15.10;99.90
8099;DHT22;4092;47.876;9.372;2022-07-05T00:48:05;15.10;99.90
8099;DHT22;4092;47.876;9.372;2022-07-05T00:50:33;15.20;99.90
8099;DHT22;4092;47.876;9.372;2022-07-05T00:53:00;15.20;99.90
8099;DHT22;4092;47.876;9.372;2022-07-05T00:55:28;15.20;99.90
8099;DHT22;4092;47.876;9.372;2022-07-05T00:57:55;15.30;99.90
8099;DHT22;4092;47.876;9.372;2022-07-05T01:00:22;15.20;99.90
8099;DHT22;4092;47.876;9.372;2022-07-05T01:02:51;15.30;99.90
8099;DHT22;4092;47.876;9.372;2022-07-05T01:05:18;15.30;99.90
8099;DHT22;4092;47.876;9.372;2022-07-05T01:07:46;15.20;99.90
8099;DHT22;4092;47.876;9.372;2022-07-05T01:10:13;15.30;99.90
8099;DHT22;4092;47.876;9.372;2022-07-05T01:12:40;15.30;99.90
8099;DHT22;4092;47.876;9.372;2022-07-05T01:15:08;15.40;99.90
8099;DHT22;4092;47.876;9.372;2022-07-05T01:17:36;15.40;99.90
8099;DHT22;4092;47.876;9.372;2022-07-05T01:20:07;15.40;99.90
8099;DHT22;4092;47.876;9.372;2022-07-05T01:22:50;15.40;99.90
8099;DHT22;4092;47.876;9.372;2022-07-05T01:25:20;15.40;99.90
8099;DHT22;4092;47.876;9.372;2022-07-05T01:27:47;15.40;99.90
8099;DHT22;4092;47.876;9.372;2022-07-05T01:30:15;15.50;99.90
8099;DHT22;4092;47.876;9.372;2022-07-05T01:32:43;15.50;99.90
8099;DHT22;4092;47.876;9.372;2022-07-05T01:35:11;15.50;99.90
8099;DHT22;4092;47.876;9.372;2022-07-05T01:37:40;15.50;99.90
8099;DHT22;4092;47.876;9.372;2022-07-05T01:40:08;15.50;99.90
8099;DHT22;4092;47.876;9.372;2022-07-05T01:42:35;15.50;99.90
8099;DHT22;4092;47.876;9.372;2022-07-05T01:45:02;15.40;99.90
8099;DHT22;4092;47.876;9.372;2022-07-05T01:47:30;15.40;99.90
8099;DHT22;4092;47.876;9.372;2022-07-05T01:49:59;15.40;99.90
8099;DHT22;4092;47.876;9.372;2022-07-05T01:52:27;15.40;99.90
8099;DHT22;4092;47.876;9.372;2022-07-05T01:54:58;15.40;99.90
8099;DHT22;4092;47.876;9.372;2022-07-05T01:57:26;15.40;99.90
8099;DHT22;4092;47.876;9.372;2022-07-05T01:59:54;15.40;99.90
8099;DHT22;4092;47.876;9.372;2022-07-05T02:02:21;15.40;99.90
8099;DHT22;4092;47.876;9.372;2022-07-05T02:04:48;15.40;99.90
8099;DHT22;4092;47.876;9.372;2022-07-05T02:07:15;15.40;99.90
8099;DHT22;4092;47.876;9.372;2022-07-05T02:09:42;15.40;99.90
8099;DHT22;4092;47.876;9.372;2022-07-05T02:12:10;15.40;99.90
8099;DHT22;4092;47.876;9.372;2022-07-05T02:14:37;15.40;99.90
8099;DHT22;4092;47.876;9.372;2022-07-05T02:17:04;15.40;99.90
8099;DHT22;4092;47.876;9.372;2022-07-05T02:19:32;15.50;99.90
8099;DHT22;4092;47.876;9.372;2022-07-05T02:21:59;15.40;99.90
8099;DHT22;4092;47.876;9.372;2022-07-05T02:24:26;15.50;99.90
8099;DHT22;4092;47.876;9.372;2022-07-05T02:26:53;15.50;99.90
8099;DHT22;4092;47.876;9.372;2022-07-05T02:29:21;15.40;99.90
8099;DHT22;4092;47.876;9.372;2022-07-05T02:31:48;15.40;99.90
8099;DHT22;4092;47.876;9.372;2022-07-05T02:34:15;15.50;99.90
8099;DHT22;4092;47.876;9.372;2022-07-05T02:36:42;15.50;99.90
8099;DHT22;4092;47.876;9.372;2022-07-05T02:39:09;15.50;99.90
8099;DHT22;4092;47.876;9.372;2022-07-05T02:41:36;15.50;99.90
8099;DHT22;4092;47.876;9.372;2022-07-05T02:44:04;15.60;99.90
8099;DHT22;4092;47.876;9.372;2022-07-05T02:46:32;15.60;99.90
8099;DHT22;4092;47.876;9.372;2022-07-05T02:48:59;15.60;99.90
8099;DHT22;4092;47.876;9.372;2022-07-05T02:51:26;15.60;99.90
8099;DHT22;4092;47.876;9.372;2022-07-05T02:53:53;15.70;99.90
8099;DHT22;4092;47.876;9.372;2022-07-05T02:56:20;15.70;99.90
8099;DHT22;4092;47.876;9.372;2022-07-05T02:58:47;15.70;99.90
8099;DHT22;4092;47.876;9.372;2022-07-05T03:01:14;15.70;99.90
8099;DHT22;4092;47.876;9.372;2022-07-05T03:03:43;15.60;99.90
8099;DHT22;4092;47.876;9.372;2022-07-05T03:06:10;15.60;99.90
8099;DHT22;4092;47.876;9.372;2022-07-05T03:08:37;15.60;99.90
8099;DHT22;4092;47.876;9.372;2022-07-05T03:11:04;15.60;99.90
8099;DHT22;4092;47.876;9.372;2022-07-05T03:13:31;15.60;99.90
8099;DHT22;4092;47.876;9.372;2022-07-05T03:15:58;15.60;99.90
8099;DHT22;4092;47.876;9.372;2022-07-05T03:18:25;15.60;99.90
8099;DHT22;4092;47.876;9.372;2022-07-05T03:20:54;15.60;99.90
8099;DHT22;4092;47.876;9.372;2022-07-05T03:23:21;15.70;99.90
8099;DHT22;4092;47.876;9.372;2022-07-05T03:25:48;15.60;99.90
8099;DHT22;4092;47.876;9.372;2022-07-05T03:28:15;15.60;99.90
8099;DHT22;4092;47.876;9.372;2022-07-05T03:30:42;15.60;99.90
8099;DHT22;4092;47.876;9.372;2022-07-05T03:33:09;15.60;99.90
8099;DHT22;4092;47.876;9.372;2022-07-05T03:35:36;15.60;99.90
8099;DHT22;4092;47.876;9.372;2022-07-05T03:38:04;15.60;99.90
8099;DHT22;4092;47.876;9.372;2022-07-05T03:40:31;15.60;99.90
8099;DHT22;4092;47.876;9.372;2022-07-05T03:42:58;15.70;99.90
8099;DHT22;4092;47.876;9.372;2022-07-05T03:45:25;15.70;99.90
8099;DHT22;4092;47.876;9.372;2022-07-05T03:47:52;15.70;99.90
8099;DHT22;4092;47.876;9.372;2022-07-05T03:50:19;15.70;99.90
8099;DHT22;4092;47.876;9.372;2022-07-05T03:52:46;15.70;99.90
8099;DHT22;4092;47.876;9.372;2022-07-05T03:55:15;15.70;99.90
8099;DHT22;4092;47.876;9.372;2022-07-05T03:57:42;15.60;99.90
8099;DHT22;4092;47.876;9.372;2022-07-05T04:00:09;15.60;99.90
8099;DHT22;4092;47.876;9.372;2022-07-05T04:02:37;15.70;99.90
8099;DHT22;4092;47.876;9.372;2022-07-05T04:05:05;15.70;99.90
8099;DHT22;4092;47.876;9.372;2022-07-05T04:07:32;15.70;99.90
8099;DHT22;4092;47.876;9.372;2022-07-05T04:09:59;15.70;99.90
8099;DHT22;4092;47.876;9.372;2022-07-05T04:12:27;15.70;99.90
8099;DHT22;4092;47.876;9.372;2022-07-05T04:14:54;15.70;99.90
8099;DHT22;4092;47.876;9.372;2022-07-05T04:17:21;15.70;99.90
8099;DHT22;4092;47.876;9.372;2022-07-05T04:19:48;15.80;99.90
8099;DHT22;4092;47.876;9.372;2022-07-05T04:22:15;15.80;99.90
8099;DHT22;4092;47.876;9.372;2022-07-05T04:24:42;15.80;99.90
8099;DHT22;4092;47.876;9.372;2022-07-05T04:27:28;15.80;99.90
8099;DHT22;4092;47.876;9.372;2022-07-05T04:29:55;15.80;99.90
8099;DHT22;4092;47.876;9.372;2022-07-05T04:32:22;15.90;99.90
8099;DHT22;4092;47.876;9.372;2022-07-05T04:34:51;15.80;99.90
8099;DHT22;4092;47.876;9.372;2022-07-05T04:37:18;15.90;99.90
8099;DHT22;4092;47.876;9.372;2022-07-05T04:39:45;15.90;99.90
8099;DHT22;4092;47.876;9.372;2022-07-05T04:42:12;15.90;99.90
8099;DHT22;4092;47.876;9.372;2022-07-05T04:44:40;15.90;99.90
8099;DHT22;4092;47.876;9.372;2022-07-05T04:47:07;16.00;99.90
8099;DHT22;4092;47.876;9.372;2022-07-05T04:49:34;15.90;99.90
8099;DHT22;4092;47.876;9.372;2022-07-05T04:52:01;16.00;99.90
8099;DHT22;4092;47.876;9.372;2022-07-05T04:54:28;16.10;99.90
8099;DHT22;4092;47.876;9.372;2022-07-05T04:56:55;16.20;99.90
8099;DHT22;4092;47.876;9.372;2022-07-05T04:59:22;16.20;99.90
8099;DHT22;4092;47.876;9.372;2022-07-05T05:01:51;16.30;99.90
8099;DHT22;4092;47.876;9.372;2022-07-05T05:04:18;16.30;99.90
8099;DHT22;4092;47.876;9.372;2022-07-05T05:06:45;16.30;99.90
8099;DHT22;4092;47.876;9.372;2022-07-05T05:09:12;16.30;99.90
8099;DHT22;4092;47.876;9.372;2022-07-05T05:11:39;16.30;99.90
8099;DHT22;4092;47.876;9.372;2022-07-05T05:14:06;16.30;99.90
8099;DHT22;4092;47.876;9.372;2022-07-05T05:16:33;16.30;99.90
8099;DHT22;4092;47.876;9.372;2022-07-05T05:19:01;16.30;99.90
8099;DHT22;4092;47.876;9.372;2022-07-05T05:21:28;16.30;99.90
8099;DHT22;4092;47.876;9.372;2022-07-05T05:23:55;16.30;99.90
8099;DHT22;4092;47.876;9.372;2022-07-05T05:26:23;16.40;99.90
8099;DHT22;4092;47.876;9.372;2022-07-05T05:28:50;16.40;99.90
8099;DHT22;4092;47.876;9.372;2022-07-05T05:31:17;16.40;99.90
8099;DHT22;4092;47.876;9.372;2022-07-05T05:33:44;16.50;99.90
8099;DHT22;4092;47.876;9.372;2022-07-05T05:36:14;16.50;99.90
8099;DHT22;4092;47.876;9.372;2022-07-05T05:38:43;16.60;99.90
8099;DHT22;4092;47.876;9.372;2022-07-05T05:41:10;16.60;99.90
8099;DHT22;4092;47.876;9.372;2022-07-05T05:43:37;16.60;99.90
8099;DHT22;4092;47.876;9.372;2022-07-05T05:46:04;16.60;99.90
8099;DHT22;4092;47.876;9.372;2022-07-05T05:48:31;16.70;99.90
8099;DHT22;4092;47.876;9.372;2022-07-05T05:50:58;16.80;99.90
8099;DHT22;4092;47.876;9.372;2022-07-05T05:53:28;16.90;99.90
8099;DHT22;4092;47.876;9.372;2022-07-05T05:55:55;16.90;99.90
8099;DHT22;4092;47.876;9.372;2022-07-05T05:58:23;17.00;99.90
8099;DHT22;4092;47.876;9.372;2022-07-05T06:00:51;17.00;99.90
8099;DHT22;4092;47.876;9.372;2022-07-05T06:03:18;17.20;99.90
8099;DHT22;4092;47.876;9.372;2022-07-05T06:05:46;17.30;99.90
8099;DHT22;4092;47.876;9.372;2022-07-05T06:08:13;17.40;99.90
8099;DHT22;4092;47.876;9.372;2022-07-05T06:10:42;17.50;99.90
8099;DHT22;4092;47.876;9.372;2022-07-05T06:13:10;17.60;99.90
8099;DHT22;4092;47.876;9.372;2022-07-05T06:15:38;17.70;99.90
8099;DHT22;4092;47.876;9.372;2022-07-05T06:18:07;17.70;99.90
8099;DHT22;4092;47.876;9.372;2022-07-05T06:20:36;17.70;99.90
8099;DHT22;4092;47.876;9.372;2022-07-05T06:23:04;17.70;99.90
8099;DHT22;4092;47.876;9.372;2022-07-05T06:25:32;17.60;99.90
8099;DHT22;4092;47.876;9.372;2022-07-05T06:28:03;17.60;99.90
8099;DHT22;4092;47.876;9.372;2022-07-05T06:30:32;17.70;99.90
8099;DHT22;4092;47.876;9.372;2022-07-05T06:32:59;17.70;99.90
8099;DHT22;4092;47.876;9.372;2022-07-05T06:35:27;17.80;99.90
8099;DHT22;4092;47.876;9.372;2022-07-05T06:37:57;17.90;99.90
8099;DHT22;4092;47.876;9.372;2022-07-05T06:40:27;18.00;99.90
8099;DHT22;4092;47.876;9.372;2022-07-05T06:42:58;18.00;99.90
8099;DHT22;4092;47.876;9.372;2022-07-05T06:45:26;18.00;99.90
8099;DHT22;4092;47.876;9.372;2022-07-05T06:47:55;18.00;99.90
8099;DHT22;4092;47.876;9.372;2022-07-05T06:50:22;18.00;99.90
8099;DHT22;4092;47.876;9.372;2022-07-05T06:52:49;18.10;99.90
8099;DHT22;4092;47.876;9.372;2022-07-05T06:55:16;18.20;99.90
8099;DHT22;4092;47.876;9.372;2022-07-05T06:57:43;18.20;99.90
8099;DHT22;4092;47.876;9.372;2022-07-05T07:00:12;18.30;99.90
8099;DHT22;4092;47.876;9.372;2022-07-05T07:02:41;18.30;99.90
8099;DHT22;4092;47.876;9.372;2022-07-05T07:05:08;18.40;99.90
8099;DHT22;4092;47.876;9.372;2022-07-05T07:07:35;18.50;99.90
8099;DHT22;4092;47.876;9.372;2022-07-05T07:10:20;18.60;99.90
8099;DHT22;4092;47.876;9.372;2022-07-05T07:12:47;18.70;99.90
8099;DHT22;4092;47.876;9.372;2022-07-05T07:15:14;18.80;99.90
8099;DHT22;4092;47.876;9.372;2022-07-05T07:17:45;19.00;99.90
8099;DHT22;4092;47.876;9.372;2022-07-05T07:20:13;19.10;99.90
8099;DHT22;4092;47.876;9.372;2022-07-05T07:22:40;19.10;99.90
8099;DHT22;4092;47.876;9.372;2022-07-05T07:25:08;19.10;99.90
8099;DHT22;4092;47.876;9.372;2022-07-05T07:27:44;19.20;99.90
8099;DHT22;4092;47.876;9.372;2022-07-05T07:30:14;19.30;99.90
8099;DHT22;4092;47.876;9.372;2022-07-05T07:32:44;19.40;99.90
8099;DHT22;4092;47.876;9.372;2022-07-05T07:35:12;19.40;99.90
8099;DHT22;4092;47.876;9.372;2022-07-05T07:37:39;19.50;99.90
8099;DHT22;4092;47.876;9.372;2022-07-05T07:40:10;19.60;99.90
8099;DHT22;4092;47.876;9.372;2022-07-05T07:42:37;19.60;99.90
8099;DHT22;4092;47.876;9.372;2022-07-05T07:45:05;19.70;99.90
8099;DHT22;4092;47.876;9.372;2022-07-05T07:47:32;19.70;99.90
8099;DHT22;4092;47.876;9.372;2022-07-05T07:50:02;19.80;99.90
8099;DHT22;4092;47.876;9.372;2022-07-05T07:52:29;19.80;99.90
8099;DHT22;4092;47.876;9.372;2022-07-05T07:54:58;19.90;99.90
8099;DHT22;4092;47.876;9.372;2022-07-05T07:57:26;20.00;99.90
8099;DHT22;4092;47.876;9.372;2022-07-05T07:59:53;20.00;99.90
8099;DHT22;4092;47.876;9.372;2022-07-05T08:02:20;20.10;99.90
8099;DHT22;4092;47.876;9.372;2022-07-05T08:04:48;20.10;99.90
8099;DHT22;4092;47.876;9.372;2022-07-05T08:07:17;20.20;99.90
8099;DHT22;4092;47.876;9.372;2022-07-05T08:09:45;20.30;99.90
8099;DHT22;4092;47.876;9.372;2022-07-05T08:12:12;20.30;99.90
8099;DHT22;4092;47.876;9.372;2022-07-05T08:14:39;20.40;99.90
8099;DHT22;4092;47.876;9.372;2022-07-05T08:17:06;20.60;99.90
8099;DHT22;4092;47.876;9.372;2022-07-05T08:19:35;20.60;99.90
8099;DHT22;4092;47.876;9.372;2022-07-05T08:22:22;20.80;99.90
8099;DHT22;4092;47.876;9.372;2022-07-05T08:24:49;21.10;99.90
8099;DHT22;4092;47.876;9.372;2022-07-05T08:27:16;21.20;99.90
8099;DHT22;4092;47.876;9.372;2022-07-05T08:29:43;21.40;99.90
8099;DHT22;4092;47.876;9.372;2022-07-05T08:32:10;21.50;99.90
8099;DHT22;4092;47.876;9.372;2022-07-05T08:34:38;21.60;99.90
8099;DHT22;4092;47.876;9.372;2022-07-05T08:37:05;21.50;99.90
8099;DHT22;4092;47.876;9.372;2022-07-05T08:39:34;21.10;99.90
8099;DHT22;4092;47.876;9.372;2022-07-05T08:42:02;20.80;99.90
8099;DHT22;4092;47.876;9.372;2022-07-05T08:44:32;20.60;99.90
8099;DHT22;4092;47.876;9.372;2022-07-05T08:47:02;20.30;99.90
8099;DHT22;4092;47.876;9.372;2022-07-05T08:49:31;20.00;99.90
8099;DHT22;4092;47.876;9.372;2022-07-05T08:52:02;19.80;99.90
8099;DHT22;4092;47.876;9.372;2022-07-05T08:54:31;19.70;99.90
8099;DHT22;4092;47.876;9.372;2022-07-05T08:56:59;19.60;99.90
8099;DHT22;4092;47.876;9.372;2022-07-05T08:59:27;19.60;99.90
8099;DHT22;4092;47.876;9.372;2022-07-05T09:01:55;19.50;99.90
8099;DHT22;4092;47.876;9.372;2022-07-05T09:04:24;19.70;99.90
8099;DHT22;4092;47.876;9.372;2022-07-05T09:06:55;19.70;99.90
8099;DHT22;4092;47.876;9.372;2022-07-05T09:09:25;19.80;99.90
8099;DHT22;4092;47.876;9.372;2022-07-05T09:11:53;19.80;99.90
8099;DHT22;4092;47.876;9.372;2022-07-05T09:14:24;19.90;99.90
8099;DHT22;4092;47.876;9.372;2022-07-05T09:16:52;20.00;99.90
8099;DHT22;4092;47.876;9.372;2022-07-05T09:19:19;20.00;99.90
8099;DHT22;4092;47.876;9.372;2022-07-05T09:21:46;20.00;99.90
8099;DHT22;4092;47.876;9.372;2022-07-05T09:24:13;20.00;99.90
8099;DHT22;4092;47.876;9.372;2022-07-05T09:26:42;20.10;99.90
8099;DHT22;4092;47.876;9.372;2022-07-05T09:29:11;20.00;99.90
8099;DHT22;4092;47.876;9.372;2022-07-05T09:31:42;20.00;99.90
8099;DHT22;4092;47.876;9.372;2022-07-05T09:34:11;19.90;99.90
8099;DHT22;4092;47.876;9.372;2022-07-05T09:36:52;19.90;99.90
8099;DHT22;4092;47.876;9.372;2022-07-05T09:39:39;19.80;99.90
8099;DHT22;4092;47.876;9.372;2022-07-05T09:42:23;19.90;99.90
8099;DHT22;4092;47.876;9.372;2022-07-05T09:44:53;19.80;99.90
8099;DHT22;4092;47.876;9.372;2022-07-05T09:47:23;19.90;99.90
8099;DHT22;4092;47.876;9.372;2022-07-05T09:49:51;19.90;99.90
8099;DHT22;4092;47.876;9.372;2022-07-05T09:52:26;20.00;99.90
8099;DHT22;4092;47.876;9.372;2022-07-05T09:55:04;20.00;99.90
8099;DHT22;4092;47.876;9.372;2022-07-05T09:57:32;20.10;99.90
8099;DHT22;4092;47.876;9.372;2022-07-05T10:00:00;20.10;99.90
8099;DHT22;4092;47.876;9.372;2022-07-05T10:02:37;20.30;99.90
8099;DHT22;4092;47.876;9.372;2022-07-05T10:05:08;20.60;99.90
8099;DHT22;4092;47.876;9.372;2022-07-05T10:07:36;20.80;99.90
8099;DHT22;4092;47.876;9.372;2022-07-05T10:10:05;20.80;99.90
8099;DHT22;4092;47.876;9.372;2022-07-05T10:12:35;20.80;99.90
8099;DHT22;4092;47.876;9.372;2022-07-05T10:15:04;20.70;99.90
8099;DHT22;4092;47.876;9.372;2022-07-05T10:17:38;20.60;99.90
8099;DHT22;4092;47.876;9.372;2022-07-05T10:20:12;20.40;99.90
8099;DHT22;4092;47.876;9.372;2022-07-05T10:22:40;20.40;99.90
8099;DHT22;4092;47.876;9.372;2022-07-05T10:25:08;20.50;99.90
8099;DHT22;4092;47.876;9.372;2022-07-05T10:27:36;20.50;99.90
8099;DHT22;4092;47.876;9.372;2022-07-05T10:30:04;20.40;99.90
8099;DHT22;4092;47.876;9.372;2022-07-05T10:32:33;20.30;99.90
8099;DHT22;4092;47.876;9.372;2022-07-05T10:35:03;20.20;99.90
8099;DHT22;4092;47.876;9.372;2022-07-05T10:37:32;20.30;99.90
8099;DHT22;4092;47.876;9.372;2022-07-05T10:40:01;20.70;99.90
8099;DHT22;4092;47.876;9.372;2022-07-05T10:42:32;21.20;99.90
8099;DHT22;4092;47.876;9.372;2022-07-05T10:45:00;21.60;99.90
8099;DHT22;4092;47.876;9.372;2022-07-05T10:47:27;22.00;99.90
8099;DHT22;4092;47.876;9.372;2022-07-05T10:50:02;22.20;99.90
8099;DHT22;4092;47.876;9.372;2022-07-05T10:52:30;22.50;99.90
8099;DHT22;4092;47.876;9.372;2022-07-05T10:55:19;22.80;99.90
8099;DHT22;4092;47.876;9.372;2022-07-05T10:58:20;22.90;99.90
8099;DHT22;4092;47.876;9.372;2022-07-05T11:01:30;22.80;99.90
8099;DHT22;4092;47.876;9.372;2022-07-05T11:03:36;22.50;99.90
8099;DHT22;4092;47.876;9.372;2022-07-05T11:06:05;22.30;99.90
8099;DHT22;4092;47.876;9.372;2022-07-05T11:09:13;22.40;99.90
8099;DHT22;4092;47.876;9.372;2022-07-05T11:11:42;22.70;99.90
8099;DHT22;4092;47.876;9.372;2022-07-05T11:14:32;23.10;99.90
8099;DHT22;4092;47.876;9.372;2022-07-05T11:17:17;23.50;99.90
8099;DHT22;4092;47.876;9.372;2022-07-05T11:20:15;23.70;99.90
8099;DHT22;4092;47.876;9.372;2022-07-05T11:23:11;23.80;99.90
8099;DHT22;4092;47.876;9.372;2022-07-05T11:25:40;24.00;99.90
8099;DHT22;4092;47.876;9.372;2022-07-05T11:28:19;23.80;99.90
8099;DHT22;4092;47.876;9.372;2022-07-05T11:30:53;23.40;99.90
8099;DHT22;4092;47.876;9.372;2022-07-05T11:33:34;23.30;99.90
8099;DHT22;4092;47.876;9.372;2022-07-05T11:36:02;23.40;99.90
8099;DHT22;4092;47.876;9.372;2022-07-05T11:38:32;23.40;99.90
8099;DHT22;4092;47.876;9.372;2022-07-05T11:41:12;23.30;99.90
8099;DHT22;4092;47.876;9.372;2022-07-05T11:43:40;23.00;99.90
8099;DHT22;4092;47.876;9.372;2022-07-05T11:46:08;22.70;99.90
8099;DHT22;4092;47.876;9.372;2022-07-05T11:48:35;22.50;99.90
8099;DHT22;4092;47.876;9.372;2022-07-05T11:51:13;22.40;99.90
8099;DHT22;4092;47.876;9.372;2022-07-05T11:53:42;22.30;99.90
8099;DHT22;4092;47.876;9.372;2022-07-05T11:56:10;22.50;99.90
8099;DHT22;4092;47.876;9.372;2022-07-05T11:58:37;22.60;99.90
8099;DHT22;4092;47.876;9.372;2022-07-05T12:01:04;22.70;99.90
8099;DHT22;4092;47.876;9.372;2022-07-05T12:03:33;22.90;99.90
8099;DHT22;4092;47.876;9.372;2022-07-05T12:06:10;23.00;99.90
8099;DHT22;4092;47.876;9.372;2022-07-05T12:08:38;22.90;99.90
8099;DHT22;4092;47.876;9.372;2022-07-05T12:11:10;23.20;99.90
8099;DHT22;4092;47.876;9.372;2022-07-05T12:13:54;23.60;99.90
8099;DHT22;4092;47.876;9.372;2022-07-05T12:16:21;24.20;99.90
8099;DHT22;4092;47.876;9.372;2022-07-05T12:18:52;24.60;99.90
8099;DHT22;4092;47.876;9.372;2022-07-05T12:21:20;24.90;99.90
8099;DHT22;4092;47.876;9.372;2022-07-05T12:23:49;25.20;99.90
8099;DHT22;4092;47.876;9.372;2022-07-05T12:26:19;25.50;99.90
8099;DHT22;4092;47.876;9.372;2022-07-05T12:28:47;25.80;99.90
8099;DHT22;4092;47.876;9.372;2022-07-05T12:31:16;25.90;99.90
8099;DHT22;4092;47.876;9.372;2022-07-05T12:33:44;26.10;99.90
8099;DHT22;4092;47.876;9.372;2022-07-05T12:36:12;26.10;99.90
8099;DHT22;4092;47.876;9.372;2022-07-05T12:38:39;26.30;99.90
8099;DHT22;4092;47.876;9.372;2022-07-05T12:41:07;26.50;99.90
8099;DHT22;4092;47.876;9.372;2022-07-05T12:43:49;26.70;99.90
8099;DHT22;4092;47.876;9.372;2022-07-05T12:46:17;27.00;99.90
8099;DHT22;4092;47.876;9.372;2022-07-05T12:48:44;27.50;99.90
8099;DHT22;4092;47.876;9.372;2022-07-05T12:51:31;27.60;99.90
8099;DHT22;4092;47.876;9.372;2022-07-05T12:53:58;27.70;99.90
8099;DHT22;4092;47.876;9.372;2022-07-05T12:56:46;27.90;99.90
8099;DHT22;4092;47.876;9.372;2022-07-05T12:59:32;27.80;99.90
8099;DHT22;4092;47.876;9.372;2022-07-05T13:02:00;28.10;99.90
8099;DHT22;4092;47.876;9.372;2022-07-05T13:04:27;28.50;99.90
8099;DHT22;4092;47.876;9.372;2022-07-05T13:06:55;28.60;99.90
8099;DHT22;4092;47.876;9.372;2022-07-05T13:09:33;28.60;99.90
8099;DHT22;4092;47.876;9.372;2022-07-05T13:12:11;28.70;99.90
8099;DHT22;4092;47.876;9.372;2022-07-05T13:14:42;28.70;99.90
8099;DHT22;4092;47.876;9.372;2022-07-05T13:17:10;28.50;99.90
8099;DHT22;4092;47.876;9.372;2022-07-05T13:19:39;28.70;99.90
8099;DHT22;4092;47.876;9.372;2022-07-05T13:22:07;29.10;99.90
8099;DHT22;4092;47.876;9.372;2022-07-05T13:24:34;28.90;98.20
8099;DHT22;4092;47.876;9.372;2022-07-05T13:27:03;29.10;98.60
8099;DHT22;4092;47.876;9.372;2022-07-05T13:29:30;29.30;99.90
8099;DHT22;4092;47.876;9.372;2022-07-05T13:31:59;29.60;99.90
8099;DHT22;4092;47.876;9.372;2022-07-05T13:34:26;29.50;98.40
8099;DHT22;4092;47.876;9.372;2022-07-05T13:36:55;29.40;99.20
8099;DHT22;4092;47.876;9.372;2022-07-05T13:39:22;29.50;99.70
8099;DHT22;4092;47.876;9.372;2022-07-05T13:41:51;29.70;99.90
8099;DHT22;4092;47.876;9.372;2022-07-05T13:44:19;29.70;97.70
8099;DHT22;4092;47.876;9.372;2022-07-05T13:46:46;29.60;99.40
8099;DHT22;4092;47.876;9.372;2022-07-05T13:49:15;29.60;95.60
8099;DHT22;4092;47.876;9.372;2022-07-05T13:51:42;29.60;97.30
8099;DHT22;4092;47.876;9.372;2022-07-05T13:54:09;29.50;95.60
8099;DHT22;4092;47.876;9.372;2022-07-05T13:56:36;29.90;97.70
8099;DHT22;4092;47.876;9.372;2022-07-05T13:59:04;29.90;98.10
8099;DHT22;4092;47.876;9.372;2022-07-05T14:01:31;29.80;94.40
8099;DHT22;4092;47.876;9.372;2022-07-05T14:03:59;29.60;95.10
8099;DHT22;4092;47.876;9.372;2022-07-05T14:06:30;29.30;96.30
8099;DHT22;4092;47.876;9.372;2022-07-05T14:08:57;28.90;96.90
8099;DHT22;4092;47.876;9.372;2022-07-05T14:11:25;28.80;94.30
8099;DHT22;4092;47.876;9.372;2022-07-05T14:13:52;28.50;96.90
8099;DHT22;4092;47.876;9.372;2022-07-05T14:16:19;27.90;94.40
8099;DHT22;4092;47.876;9.372;2022-07-05T14:18:46;27.70;96.90
8099;DHT22;4092;47.876;9.372;2022-07-05T14:21:15;27.30;97.20
8099;DHT22;4092;47.876;9.372;2022-07-05T14:23:44;27.30;97.10
8099;DHT22;4092;47.876;9.372;2022-07-05T14:26:12;27.10;99.90
8099;DHT22;4092;47.876;9.372;2022-07-05T14:28:39;27.10;99.90
8099;DHT22;4092;47.876;9.372;2022-07-05T14:31:06;27.50;99.30
8099;DHT22;4092;47.876;9.372;2022-07-05T14:33:33;27.40;97.80
8099;DHT22;4092;47.876;9.372;2022-07-05T14:36:01;26.80;99.90
8099;DHT22;4092;47.876;9.372;2022-07-05T14:38:28;26.50;99.90
8099;DHT22;4092;47.876;9.372;2022-07-05T14:40:57;26.10;98.30
8099;DHT22;4092;47.876;9.372;2022-07-05T14:43:24;25.90;99.90
8099;DHT22;4092;47.876;9.372;2022-07-05T14:45:51;25.80;99.90
8099;DHT22;4092;47.876;9.372;2022-07-05T14:48:18;25.80;99.90
8099;DHT22;4092;47.876;9.372;2022-07-05T14:50:47;25.90;99.90
8099;DHT22;4092;47.876;9.372;2022-07-05T14:53:15;26.10;99.90
8099;DHT22;4092;47.876;9.372;2022-07-05T14:55:44;26.40;99.90
8099;DHT22;4092;47.876;9.372;2022-07-05T14:58:12;26.30;99.90
8099;DHT22;4092;47.876;9.372;2022-07-05T15:00:39;26.10;99.90
8099;DHT22;4092;47.876;9.372;2022-07-05T15:03:07;25.70;99.90
8099;DHT22;4092;47.876;9.372;2022-07-05T15:05:35;26.00;99.90
8099;DHT22;4092;47.876;9.372;2022-07-05T15:08:02;26.60;99.90
8099;DHT22;4092;47.876;9.372;2022-07-05T15:10:30;27.10;99.70
8099;DHT22;4092;47.876;9.372;2022-07-05T15:12:57;27.80;99.90
8099;DHT22;4092;47.876;9.372;2022-07-05T15:15:25;28.30;99.60
8099;DHT22;4092;47.876;9.372;2022-07-05T15:17:52;28.00;98.40
8099;DHT22;4092;47.876;9.372;2022-07-05T15:20:22;28.00;98.60
8099;DHT22;4092;47.876;9.372;2022-07-05T15:22:49;28.20;99.50
8099;DHT22;4092;47.876;9.372;2022-07-05T15:25:17;28.40;99.60
8099;DHT22;4092;47.876;9.372;2022-07-05T15:27:44;28.00;98.00
8099;DHT22;4092;47.876;9.372;2022-07-05T15:30:12;27.90;98.50
8099;DHT22;4092;47.876;9.372;2022-07-05T15:32:42;28.30;98.20
8099;DHT22;4092;47.876;9.372;2022-07-05T15:35:09;28.50;96.70
8099;DHT22;4092;47.876;9.372;2022-07-05T15:37:37;28.50;96.50
8099;DHT22;4092;47.876;9.372;2022-07-05T15:40:05;28.80;97.90
8099;DHT22;4092;47.876;9.372;2022-07-05T15:42:32;29.10;96.10
8099;DHT22;4092;47.876;9.372;2022-07-05T15:44:59;29.10;96.40
8099;DHT22;4092;47.876;9.372;2022-07-05T15:47:26;29.20;97.60
8099;DHT22;4092;47.876;9.372;2022-07-05T15:49:55;29.30;94.90
8099;DHT22;4092;47.876;9.372;2022-07-05T15:52:22;28.80;95.50
8099;DHT22;4092;47.876;9.372;2022-07-05T15:54:49;28.50;95.50
8099;DHT22;4092;47.876;9.372;2022-07-05T15:57:16;28.30;94.40
8099;DHT22;4092;47.876;9.372;2022-07-05T15:59:45;28.50;94.50
8099;DHT22;4092;47.876;9.372;2022-07-05T16:02:12;28.60;94.30
8099;DHT22;4092;47.876;9.372;2022-07-05T16:04:40;28.70;95.30
8099;DHT22;4092;47.876;9.372;2022-07-05T16:07:09;28.50;94.10
8099;DHT22;4092;47.876;9.372;2022-07-05T16:09:36;28.50;93.90
8099;DHT22;4092;47.876;9.372;2022-07-05T16:12:03;28.60;94.70
8099;DHT22;4092;47.876;9.372;2022-07-05T16:14:30;28.70;96.60